Карточка аэропорта UHPP

Внимание!
Информация на этой странице в стадии наполнения.
Если вы не увидели какой-то информации, или заметили неточность - пожалуйста сообщите нам!
Спасибо!
Команда RU-STAFF
Название аэропортаЕлизово
Название аэропорта (англ.)Yelizovo
Превышение131 ft. (39.9 m.)
Координаты53°10.002', 158°27.24'
Высота перехода2400m
Эшелон переходаQFE>756:FL90;756>QFE>729:FL100;729>QFE:FL110
Коды ответчика6630-6657
Зона ОрВДПетропавловск-Камчатский РПИ (UHPP)
Данные METARUHPP 141200Z 19004MPS 4000 -SHRA BR SCT004 OVC020CB 14/14 Q1013 R16R/290155 NOSIG RMK QFE757/1009
Проноз погоды (TAF)UHPP 141044Z 1412/1518 18003G12MPS 4000 -SHRA BR BKN007 BKN020CB TEMPO 1412/1423 0700 SHRA FG VV002 TEMPO 1423/1509 2000 SHRA BR VV004 TEMPO 1509/1518 14008G15MPS 1000 SHRA BR VV003
NOTAMshow/hide NOTAM
AWOS   TABLE

Информация о ВПП

ВПП Длина ВПП (м.) Покрытие Курс ВПП Частота ILS
16L3400Бетон164 
34L2500Бетон344 
16R2500Бетон164 
34R3400Бетон344110.3

Диспетчерские позиции

Позывной Наименование органа УВД Частота
UHPP_R_APPПетропавловск - Круг119.400
UHPP_TWRПетропавловск - Старт118.100



Спутниковое изображение